ADDS METAR Data INFO
IDs: Format: Raw Decoded Include TAF

Data at: 1311 UTC 11 Dec 2017

KHHR 111253Z AUTO 00000KT 10SM CLR 13/M04 A3015 RMK AO2 SLP209 T01331039 $
KHHR 111153Z AUTO 00000KT 10SM CLR 13/M04 A3015 RMK AO2 SLP207 T01331044 10200 20128 58005 $
KHHR 111053Z AUTO 00000KT 10SM CLR 14/M04 A3016 RMK AO2 SLP212 T01441039 $
KHHR 110953Z AUTO 00000KT 10SM CLR 14/M04 A3016 RMK AO2 SLP213 T01441039 $
KHHR 110853Z AUTO 00000KT 10SM CLR 17/M06 A3016 RMK AO2 SLP212 T01721056 50000 $
KHHR 110753Z AUTO 00000KT 10SM CLR 16/M03 A3016 RMK AO2 SLP213 T01611033 402940100 $
KHHR 110653Z AUTO 00000KT 10SM CLR 18/M05 A3017 RMK AO2 SLP214 T01831050 $
KHHR 110553Z AUTO 36003KT 10SM CLR 20/M04 A3016 RMK AO2 SLP212 T02001044 10272 20200 53015 $
KHHR 110453Z 00000KT 10SM CLR 21/M06 A3015 RMK AO2 SLP207 T02061056 $
KHHR 110353Z 00000KT 10SM CLR 21/M04 A3013 RMK AO2 SLP202 T02111039 $
KHHR 110253Z 27003KT 10SM CLR 21/M03 A3012 RMK AO2 SLP197 T02061028 53014 $
KHHR 110153Z 00000KT 10SM CLR 23/M04 A3010 RMK AO2 SLP193 T02281044 $
KHHR 110053Z 00000KT 10SM CLR 25/M06 A3008 RMK AO2 SLP185 T02501061 $
KHHR 102353Z 00000KT 10SM CLR 27/M07 A3008 RMK AO2 SLP184 T02721072 10294 20189 55009 $
KHHR 102253Z 32003KT 10SM CLR 29/M08 A3008 RMK AO2 SLP183 T02891078 $
KHHR 102153Z 31003KT 10SM CLR 29/M08 A3008 RMK AO2 SLP185 T02891078 $
KHHR 102053Z 00000KT 10SM CLR 28/M09 A3010 RMK AO2 SLP193 T02781089 58027 $
KHHR 101953Z 28003KT 10SM CLR 27/M07 A3014 RMK AO2 SLP204 T02671072 $
KHHR 101853Z 00000KT 10SM CLR 23/M06 A3016 RMK AO2 SLP213 T02331061 $
KHHR 101753Z 00000KT 10SM CLR 19/M05 A3018 RMK AO2 SLP220 T01891050 10189 20100 50004 $
KHHR 101653Z 00000KT 10SM CLR 17/M06 A3019 RMK AO2 SLP221 T01721061 $
KHHR 101553Z 00000KT 10SM CLR 14/M07 A3018 RMK AO2 SLP220 T01391072 $
KHHR 101453Z 00000KT 10SM CLR 14/M08 A3017 RMK AO2 SLP216 T01441078 50006 $
KHHR 101353Z 00000KT 10SM CLR 10/M03 A3017 RMK AO2 SLP217 T01001028 $
KHHR 101253Z AUTO 00000KT 10SM CLR 11/M03 A3016 RMK AO2 SLP210 T01061033 $
KHHR 101153Z AUTO 00000KT 10SM CLR 13/M05 A3015 RMK AO2 SLP209 T01331050 10167 20117 58003 $
KHHR 101053Z AUTO 00000KT 10SM CLR 13/M03 A3016 RMK AO2 SLP213 T01281028 $
KHHR 100953Z AUTO 00000KT 10SM CLR 13/M03 A3016 RMK AO2 SLP213 T01331028 $
KHHR 100853Z AUTO 00000KT 10SM CLR 14/M03 A3016 RMK AO2 SLP213 T01441033 58005 $
KHHR 100753Z AUTO 00000KT 10SM CLR 16/M02 A3017 RMK AO2 SLP214 T01561017 402940100 $
KHHR 100653Z AUTO 00000KT 10SM CLR 16/M02 A3018 RMK AO2 SLP217 T01611022 $
KHHR 100553Z 00000KT 10SM CLR 17/M01 A3018 RMK AO2 SLP217 T01671011 10267 20156 52008 $
KHHR 100453Z 00000KT 10SM CLR 17/M01 A3017 RMK AO2 SLP215 T01721006 $
KHHR 100353Z 00000KT 10SM CLR 19/M01 A3016 RMK AO2 SLP213 T01891006 $
KHHR 100253Z 00000KT 10SM CLR 21/M01 A3015 RMK AO2 SLP211 T02061011 53013 $
KHHR 100153Z 00000KT 10SM CLR 22/M03 A3014 RMK AO2 SLP205 T02221028 $